ルアンダ の空港の天気 - METARとTAF

ルアンダ国際空港 ( FNLU / LAD ) - アンゴラ ルアンダ
飛行場実況気象(Metar)
観測時間11/30 18:00 WAT (11/30 17:00 UTC)
風向・風速南西 3m/s
視程10km以上
天気現象
少しの雲 雲底高度 610m
少しの雲 雲底高度 700m
全天の8割程度の雲 雲底高度 2440m
気温26℃
湿度84%
気圧1007hPa
METARFNLU 301700Z 22006KT 9999 FEW020 FEW023CB BKN080 26/23 Q1007
過去の天気等 Google飛行場航空写真 Wunderground天気予報

過去48時間のMETAR

飛行場予報(TAF)
発表時間: 11/30 18:00 WAT (11/30 17:00 UTC)
予報対象時間: 30日19時 WAT ~ 2日1時 WAT
風向・風速不定 2m/s
視程9000m
少しの雲 雲底高度 m
全天の4割程度の雲 雲底高度 910m
30日21時 WAT ~ 1日1時 WAT に徐々に
全天の8割程度の雲 雲底高度 760m
TAF FNLU 301700Z 3018/0124 VRB03KT 9000 FEW20TCU SCT030
BECMG 3020/3024 BKN025